createdAt,value
2018-07-05T04:13:07.569Z,444
2018-07-05T04:13:27.727Z,444
2018-07-05T04:13:47.900Z,444
2018-07-05T04:14:08.063Z,448
2018-07-05T04:14:28.268Z,452
2018-07-05T04:14:48.421Z,460
2018-07-05T04:15:08.644Z,468
2018-07-05T04:15:28.830Z,484
2018-07-05T04:15:49.077Z,500
2018-07-05T04:16:09.233Z,516
2018-07-05T04:16:29.424Z,540
2018-07-05T04:16:49.586Z,564
2018-07-05T04:17:09.741Z,588
2018-07-05T04:17:29.952Z,608
2018-07-05T04:17:50.169Z,628
2018-07-05T04:20:31.480Z,676
2018-07-05T04:20:51.682Z,680
2018-07-05T04:21:11.867Z,684
2018-07-05T04:21:32.105Z,688
2018-07-05T04:21:52.291Z,684
2018-07-05T04:22:12.495Z,692
2018-07-05T04:22:32.730Z,696
2018-07-05T04:22:52.962Z,704
2018-07-05T04:32:36.043Z,760
2018-07-05T04:34:15.253Z,804
2018-07-05T04:34:35.408Z,816
2018-07-05T04:36:11.709Z,852
2018-07-05T04:38:09.742Z,896
2018-07-05T04:38:29.917Z,912
2018-07-05T04:40:30.437Z,948
2018-07-05T04:40:50.580Z,952
2018-07-05T04:41:10.781Z,952
2018-07-05T04:41:30.989Z,960
2018-07-05T04:41:51.145Z,972
2018-07-05T04:42:11.322Z,980
2018-07-05T04:42:31.537Z,984
2018-07-05T04:42:51.724Z,988
2018-07-05T04:43:11.909Z,992
2018-07-05T04:43:32.113Z,1004
2018-07-05T04:43:52.278Z,1012
2018-07-05T04:44:12.459Z,1024
2018-07-05T04:44:32.616Z,1040
2018-07-05T04:44:52.883Z,1056
2018-07-05T04:45:13.117Z,1072
2018-07-05T04:45:33.277Z,1092
2018-07-05T04:45:53.453Z,1108
2018-07-05T04:46:13.627Z,1132
2018-07-05T04:46:33.842Z,1152
2018-07-05T04:46:54.016Z,1180
2018-07-05T04:47:14.190Z,1204
2018-07-05T04:47:34.363Z,1224
2018-07-05T04:47:54.634Z,1232
2018-07-05T04:48:14.981Z,1236
2018-07-05T04:48:35.228Z,1232
2018-07-05T04:48:55.430Z,1224
2018-07-05T04:49:15.675Z,1204
2018-07-05T04:49:35.849Z,1188
2018-07-05T04:49:56.019Z,1172
2018-07-05T04:50:16.177Z,1164
2018-07-05T04:50:36.387Z,1152
2018-07-05T04:50:56.620Z,1144
2018-07-05T04:51:16.784Z,1140
2018-07-05T04:51:36.931Z,1128
2018-07-05T04:51:57.133Z,1120
2018-07-05T04:52:17.358Z,1108
2018-07-05T04:52:37.547Z,1108
2018-07-05T04:52:57.760Z,1112
2018-07-05T04:53:17.940Z,1112
2018-07-05T04:53:38.127Z,1112
2018-07-05T04:53:58.271Z,1116
2018-07-05T04:54:18.474Z,1120
2018-07-05T04:54:38.650Z,1128
2018-07-05T04:54:58.947Z,1140
2018-07-05T04:55:19.183Z,1152
2018-07-05T04:55:39.412Z,1160
2018-07-05T04:55:59.604Z,1164
2018-07-05T04:56:19.802Z,1168
2018-07-05T04:56:40.038Z,1168
2018-07-05T04:57:00.262Z,1168
2018-07-05T04:57:20.430Z,1172
2018-07-05T04:57:40.621Z,1168
2018-07-05T04:58:00.832Z,1168
2018-07-05T04:58:21.021Z,1164
2018-07-05T04:58:41.194Z,1164
2018-07-05T04:59:01.399Z,1160
2018-07-05T04:59:21.632Z,1156
2018-07-05T04:59:41.791Z,1156
2018-07-05T05:00:01.993Z,1160
2018-07-05T05:00:22.181Z,1172
2018-07-05T05:00:42.409Z,1180
2018-07-05T05:01:02.585Z,1184
2018-07-05T05:01:22.802Z,1196
2018-07-05T05:01:43.014Z,1208
2018-07-05T05:02:03.245Z,1212
2018-07-05T05:02:23.442Z,1204
2018-07-05T05:02:43.747Z,1188
2018-07-05T05:03:03.912Z,1168
2018-07-05T05:03:24.139Z,1148
2018-07-05T05:03:44.357Z,1116
2018-07-05T05:04:04.584Z,1088
2018-07-05T05:04:24.802Z,1060
2018-07-05T05:04:44.940Z,1032
2018-07-05T05:05:05.122Z,1000
2018-07-05T05:05:25.333Z,976
2018-07-05T05:05:45.519Z,952
2018-07-05T05:06:05.701Z,924
2018-07-05T05:06:25.830Z,900
2018-07-05T05:06:46.023Z,872
2018-07-05T05:07:06.295Z,856
2018-07-05T05:07:26.476Z,836
2018-07-05T05:07:46.650Z,816
2018-07-05T05:11:17.222Z,852
2018-07-05T05:11:37.356Z,868
2018-07-05T05:11:57.557Z,884
2018-07-05T05:12:17.767Z,896
2018-07-05T05:12:37.997Z,912
2018-07-05T05:12:58.214Z,928
2018-07-05T05:13:18.516Z,952
2018-07-05T05:13:38.748Z,980
2018-07-05T05:13:58.957Z,1020
2018-07-05T05:14:19.157Z,1056
2018-07-05T05:14:39.329Z,1096
2018-07-05T05:14:59.709Z,1132
2018-07-05T05:15:19.963Z,1164
2018-07-05T05:15:40.130Z,1188
2018-07-05T05:16:00.330Z,1212
2018-07-05T05:16:20.471Z,1228
2018-07-05T05:16:40.702Z,1244
2018-07-05T05:17:00.949Z,1256
2018-07-05T05:17:21.177Z,1264
2018-07-05T05:17:41.378Z,1264
2018-07-05T05:18:01.574Z,1256
2018-07-05T05:18:21.779Z,1244
2018-07-05T05:18:41.995Z,1228
2018-07-05T05:19:02.269Z,1200
2018-07-05T05:19:22.484Z,1172
2018-07-05T05:19:42.701Z,1144
2018-07-05T05:20:02.889Z,1108
2018-07-05T05:21:44.028Z,988
2018-07-05T05:22:04.215Z,984
2018-07-05T05:23:53.938Z,1000
2018-07-05T05:24:14.133Z,996
2018-07-05T05:24:34.275Z,996
2018-07-05T05:24:54.444Z,996
2018-07-05T05:25:14.606Z,992
2018-07-05T05:25:34.779Z,988
2018-07-05T05:25:54.951Z,984
2018-07-05T05:26:15.168Z,988
2018-07-05T05:26:35.360Z,996
2018-07-05T05:26:55.550Z,996
2018-07-05T05:27:15.741Z,996
2018-07-05T05:27:35.899Z,996
2018-07-05T05:27:56.040Z,1000
2018-07-05T05:28:16.220Z,996
2018-07-05T05:28:36.495Z,988
2018-07-05T05:28:56.726Z,996
2018-07-05T05:30:36.728Z,1024
2018-07-05T05:30:56.879Z,1028
2018-07-05T05:31:57.213Z,1032
2018-07-05T05:32:52.838Z,1040
2018-07-05T05:33:13.083Z,1048
2018-07-05T05:33:33.238Z,1048
2018-07-05T05:34:44.282Z,1072
2018-07-05T05:35:04.474Z,1088
2018-07-05T05:35:24.644Z,1132
2018-07-05T05:35:44.923Z,1164
2018-07-05T05:36:05.129Z,1184
2018-07-05T05:36:25.333Z,1204
2018-07-05T05:36:45.512Z,1228
2018-07-05T05:37:05.721Z,1240
2018-07-05T05:37:25.898Z,1248
2018-07-05T05:37:46.094Z,1252
2018-07-05T05:38:06.273Z,1264
2018-07-05T05:38:26.459Z,1280
2018-07-05T05:38:46.603Z,1300
2018-07-05T05:39:06.923Z,1316
2018-07-05T05:39:27.157Z,1344
2018-07-05T05:39:47.292Z,1380
2018-07-05T05:40:07.446Z,1416
2018-07-05T05:40:27.617Z,1456
2018-07-05T05:40:47.803Z,1508
2018-07-05T05:41:07.959Z,1572
2018-07-05T05:41:28.148Z,1640
2018-07-05T05:41:48.310Z,1692
2018-07-05T05:42:08.493Z,1752
2018-07-05T05:42:28.657Z,1836
2018-07-05T05:42:48.821Z,1916
2018-07-05T05:43:08.986Z,2000
2018-07-05T05:43:29.157Z,2072
2018-07-05T05:43:49.324Z,2132
2018-07-05T05:44:09.487Z,2204
2018-07-05T05:44:29.640Z,2276
2018-07-05T05:44:49.805Z,2324
2018-07-05T05:45:09.945Z,2356
2018-07-05T05:45:30.133Z,2372
2018-07-05T05:45:50.350Z,2384
2018-07-05T05:46:10.555Z,2380
2018-07-05T05:46:30.721Z,2360
2018-07-05T05:46:50.866Z,2340
2018-07-05T05:47:11.038Z,2320
2018-07-05T05:47:31.228Z,2300
2018-07-05T05:47:51.388Z,2272
2018-07-05T05:48:11.628Z,2248
2018-07-05T05:48:31.864Z,2220
2018-07-05T05:48:52.041Z,2192
2018-07-05T05:49:12.226Z,2164
2018-07-05T05:49:32.367Z,2148
2018-07-05T05:49:52.600Z,2144
2018-07-05T05:50:12.753Z,2152
2018-07-05T05:50:32.967Z,2164
2018-07-05T05:50:53.139Z,2184
2018-07-05T05:51:13.315Z,2188
2018-07-05T05:51:33.464Z,2200
2018-07-05T05:51:53.679Z,2208
2018-07-05T05:52:13.892Z,2208
2018-07-05T05:52:34.052Z,2232
2018-07-05T05:52:54.203Z,2264
2018-07-05T05:53:14.370Z,2272
2018-07-05T05:53:34.581Z,2264
2018-07-05T05:53:54.752Z,2260
2018-07-05T05:54:14.907Z,2248
2018-07-05T05:54:35.055Z,2240
2018-07-05T05:54:55.333Z,2220
2018-07-05T05:55:15.478Z,2200
2018-07-05T05:55:35.679Z,2192
2018-07-05T05:55:55.940Z,2184
2018-07-05T05:56:16.072Z,2160
2018-07-05T05:56:36.241Z,2132
2018-07-05T05:56:56.461Z,2100
2018-07-05T05:57:16.651Z,2072
2018-07-05T05:57:36.808Z,2056
2018-07-05T05:57:56.962Z,2044
2018-07-05T05:58:17.162Z,2016
2018-07-05T05:58:37.314Z,2000
2018-07-05T05:58:57.497Z,1976
2018-07-05T05:59:17.692Z,1956
2018-07-05T05:59:37.845Z,1936
2018-07-05T05:59:58.011Z,1920
2018-07-05T06:00:18.205Z,1916
2018-07-05T06:00:38.359Z,1920
2018-07-05T06:00:58.545Z,1936
2018-07-05T06:01:18.781Z,1956
2018-07-05T06:01:38.934Z,1976
2018-07-05T06:01:59.187Z,2004
2018-07-05T06:02:19.337Z,2024
2018-07-05T06:02:39.551Z,2040
2018-07-05T06:02:59.727Z,2064
2018-07-05T06:03:19.911Z,2084
2018-07-05T06:03:40.116Z,2112
2018-07-05T06:04:00.282Z,2120
2018-07-05T06:04:20.463Z,2120
2018-07-05T06:04:40.613Z,2132
2018-07-05T06:05:00.775Z,2152
2018-07-05T06:05:20.941Z,2168
2018-07-05T06:05:41.108Z,2184
2018-07-05T06:06:01.279Z,2212
2018-07-05T06:06:21.444Z,2248
2018-07-05T06:06:41.601Z,2300
2018-07-05T06:07:01.738Z,2356
2018-07-05T06:07:21.878Z,2424
2018-07-05T06:07:42.047Z,2476
2018-07-05T06:08:02.232Z,2500
2018-07-05T06:08:22.379Z,2488
2018-07-05T06:08:42.553Z,2444
2018-07-05T06:09:02.700Z,2376
2018-07-05T06:09:22.878Z,2312
2018-07-05T06:09:43.022Z,2256
2018-07-05T06:10:03.205Z,2204
2018-07-05T06:10:23.369Z,2160
2018-07-05T06:10:43.523Z,2128
2018-07-05T06:11:03.675Z,2096
2018-07-05T06:11:23.849Z,2072
2018-07-05T06:11:43.988Z,2052
2018-07-05T06:12:04.175Z,2036
2018-07-05T06:12:24.312Z,2032
2018-07-05T06:12:44.485Z,2028
2018-07-05T06:13:04.653Z,2028
2018-07-05T06:13:24.818Z,2032
2018-07-05T06:13:44.975Z,2032
2018-07-05T06:14:05.114Z,2036
2018-07-05T06:14:25.291Z,2036
2018-07-05T06:14:45.484Z,2040
2018-07-05T06:15:05.632Z,2032
2018-07-05T06:15:25.894Z,2012
2018-07-05T06:15:45.938Z,1988
2018-07-05T06:16:06.101Z,1960
2018-07-05T06:16:26.255Z,1928
2018-07-05T06:16:46.433Z,1896
2018-07-05T06:17:06.622Z,1860
2018-07-05T06:17:26.783Z,1828
2018-07-05T06:17:46.942Z,1804
2018-07-05T06:18:07.116Z,1780
2018-07-05T06:18:27.296Z,1760
2018-07-05T06:18:47.458Z,1740
2018-07-05T06:19:07.617Z,1724
2018-07-05T06:19:27.776Z,1716
2018-07-05T06:19:47.927Z,1708
2018-07-05T06:20:08.178Z,1708
2018-07-05T06:20:28.358Z,1708
2018-07-05T06:20:48.599Z,1720
2018-07-05T06:21:08.771Z,1728
2018-07-05T06:21:29.039Z,1740
2018-07-05T06:21:49.235Z,1752
2018-07-05T06:22:09.423Z,1772
2018-07-05T06:22:29.593Z,1784
2018-07-05T06:22:49.791Z,1800
2018-07-05T06:23:10.000Z,1812
2018-07-05T06:23:30.201Z,1820
2018-07-05T06:23:50.387Z,1832
2018-07-05T06:24:10.555Z,1840
2018-07-05T06:24:30.735Z,1844
2018-07-05T06:24:50.956Z,1852
2018-07-05T06:25:11.203Z,1852
2018-07-05T06:25:31.515Z,1856
2018-07-05T06:25:51.835Z,1860
2018-07-05T06:26:12.001Z,1872
2018-07-05T06:26:32.222Z,1884
2018-07-05T06:26:52.452Z,1900
2018-07-05T06:27:12.625Z,1920
2018-07-05T06:27:32.864Z,1940
2018-07-05T06:27:53.064Z,1960
2018-07-05T06:28:13.208Z,1984
2018-07-05T06:28:33.401Z,2012
2018-07-05T06:28:53.618Z,2032
2018-07-05T06:29:13.789Z,2048
2018-07-05T06:29:33.978Z,2052
2018-07-05T06:29:54.232Z,2060
2018-07-05T06:30:14.393Z,2060
2018-07-05T06:30:34.598Z,2048
2018-07-05T06:30:54.742Z,2040
2018-07-05T06:31:14.966Z,2016
2018-07-05T06:31:35.219Z,1992
2018-07-05T06:31:55.484Z,1956
2018-07-05T06:32:15.822Z,1928
2018-07-05T06:32:36.110Z,1900
2018-07-05T06:32:56.360Z,1880
2018-07-05T06:33:16.533Z,1864
2018-07-05T06:33:36.769Z,1860
2018-07-05T06:33:57.028Z,1856
2018-07-05T06:34:17.195Z,1856
2018-07-05T06:34:37.400Z,1868
2018-07-05T06:34:57.542Z,1876
2018-07-05T06:35:17.745Z,1896
2018-07-05T06:35:37.980Z,1912
2018-07-05T06:35:58.115Z,1932
2018-07-05T06:36:18.316Z,1952
2018-07-05T06:36:38.490Z,1968
2018-07-05T06:36:58.634Z,1976
2018-07-05T06:37:18.868Z,1984
2018-07-05T06:37:39.074Z,1988
2018-07-05T06:37:59.288Z,1992
2018-07-05T06:38:19.475Z,2000
2018-07-05T06:38:39.671Z,2008
2018-07-05T06:38:59.862Z,2008
2018-07-05T06:39:20.359Z,2000
2018-07-05T06:39:40.607Z,1992
2018-07-05T06:40:00.805Z,1980
2018-07-05T06:40:20.985Z,1976
2018-07-05T06:40:41.149Z,1968
2018-07-05T06:41:01.356Z,1964
2018-07-05T06:41:21.520Z,1960
2018-07-05T06:41:41.699Z,1956
2018-07-05T06:42:01.851Z,1952
2018-07-05T06:42:22.042Z,1948
2018-07-05T06:42:42.192Z,1940
2018-07-05T06:43:02.345Z,1940
2018-07-05T06:43:22.496Z,1932
2018-07-05T06:43:42.628Z,1932
2018-07-05T06:44:03.283Z,1932
2018-07-05T06:44:23.445Z,1936
2018-07-05T06:44:43.586Z,1928
2018-07-05T06:45:03.748Z,1932
2018-07-05T06:45:23.934Z,1932
2018-07-05T06:45:44.075Z,1928
2018-07-05T06:46:04.231Z,1928
2018-07-05T06:46:24.452Z,1928
2018-07-05T06:46:44.582Z,1928
2018-07-05T06:47:04.785Z,1932
2018-07-05T06:47:24.982Z,1936
2018-07-05T06:47:45.394Z,1952
2018-07-05T06:48:05.574Z,1964
2018-07-05T06:48:25.725Z,1984
2018-07-05T06:48:45.913Z,2004
2018-07-05T06:49:06.112Z,2028
2018-07-05T06:49:26.388Z,2044
2018-07-05T06:49:46.448Z,2064
2018-07-05T06:50:06.600Z,2088
2018-07-05T06:50:26.771Z,2108
2018-07-05T06:50:46.921Z,2128
2018-07-05T06:51:07.113Z,2144
2018-07-05T06:51:27.282Z,2156
2018-07-05T06:51:47.437Z,2168
2018-07-05T06:52:07.609Z,2176
2018-07-05T06:52:27.767Z,2192
2018-07-05T06:52:47.945Z,2196
2018-07-05T06:53:08.832Z,2200
2018-07-05T06:53:29.194Z,2192
2018-07-05T06:53:49.359Z,2188
2018-07-05T06:54:09.524Z,2180
2018-07-05T06:54:29.712Z,2172
2018-07-05T06:54:49.873Z,2168
2018-07-05T06:55:10.034Z,2168
2018-07-05T06:55:30.196Z,2168
2018-07-05T06:55:50.353Z,2180
2018-07-05T06:56:10.530Z,2188
2018-07-05T06:56:30.691Z,2204
2018-07-05T06:56:50.842Z,2220
2018-07-05T06:57:11.006Z,2232
2018-07-05T06:57:31.171Z,2244
2018-07-05T06:57:51.303Z,2256
2018-07-05T06:58:11.460Z,2256
2018-07-05T06:58:31.628Z,2256
2018-07-05T06:58:51.824Z,2260
2018-07-05T06:59:12.058Z,2264
2018-07-05T06:59:32.180Z,2272
2018-07-05T06:59:52.352Z,2268
2018-07-05T07:00:12.511Z,2268
2018-07-05T07:00:32.693Z,2264
2018-07-05T07:00:52.846Z,2264
2018-07-05T07:01:13.040Z,2256
2018-07-05T07:01:33.207Z,2256
2018-07-05T07:01:53.364Z,2256
2018-07-05T07:02:13.541Z,2256
2018-07-05T07:02:33.697Z,2244
2018-07-05T07:02:53.872Z,2232
2018-07-05T07:03:14.033Z,2228
2018-07-05T07:03:34.189Z,2220
2018-07-05T07:03:54.343Z,2216
2018-07-05T07:04:14.484Z,2220
2018-07-05T07:04:34.674Z,2236
2018-07-05T07:04:54.861Z,2248
2018-07-05T07:05:15.026Z,2260
2018-07-05T07:05:35.178Z,2264
2018-07-05T07:05:55.331Z,2264
2018-07-05T07:06:15.484Z,2264
2018-07-05T07:06:35.683Z,2260
2018-07-05T07:06:55.847Z,2260
2018-07-05T07:07:16.006Z,2248
2018-07-05T07:07:36.167Z,2244
2018-07-05T07:07:56.376Z,2248
2018-07-05T07:08:16.526Z,2248
2018-07-05T07:08:36.683Z,2244
2018-07-05T07:08:56.845Z,2240
2018-07-05T07:09:17.020Z,2232
2018-07-05T07:09:37.207Z,2228
2018-07-05T07:09:57.373Z,2224
2018-07-05T07:10:17.536Z,2220
2018-07-05T07:10:37.704Z,2204
2018-07-05T07:10:57.860Z,2200
2018-07-05T07:11:18.019Z,2192
2018-07-05T07:11:38.191Z,2184
2018-07-05T07:11:58.378Z,2180
2018-07-05T07:12:18.548Z,2172
2018-07-05T07:12:38.743Z,2172
2018-07-05T07:12:58.912Z,2180
2018-07-05T07:13:19.095Z,2188
2018-07-05T07:13:39.265Z,2200
2018-07-05T07:13:59.432Z,2216
2018-07-05T07:14:19.585Z,2228
2018-07-05T07:14:39.745Z,2240
2018-07-05T07:14:59.913Z,2260
2018-07-05T07:15:20.066Z,2280
2018-07-05T07:15:40.236Z,2296
2018-07-05T07:16:00.435Z,2320
2018-07-05T07:16:20.573Z,2340
2018-07-05T07:16:40.755Z,2352
2018-07-05T07:17:00.906Z,2368
2018-07-05T07:17:21.058Z,2376
2018-07-05T07:17:41.208Z,2384
2018-07-05T07:18:01.374Z,2392
2018-07-05T07:18:21.553Z,2400
2018-07-05T07:18:41.745Z,2404
2018-07-05T07:19:01.891Z,2400
2018-07-05T07:19:22.088Z,2396
2018-07-05T07:19:42.263Z,2388
2018-07-05T07:20:02.424Z,2372
2018-07-05T07:20:22.595Z,2360
2018-07-05T07:20:42.792Z,2348
2018-07-05T07:21:02.954Z,2348
2018-07-05T07:21:23.180Z,2344
2018-07-05T07:21:43.428Z,2336
2018-07-05T07:22:03.603Z,2332
2018-07-05T07:22:23.732Z,2324
2018-07-05T07:22:43.892Z,2312
2018-07-05T07:23:04.059Z,2300
2018-07-05T07:23:24.221Z,2288
2018-07-05T07:23:44.373Z,2268
2018-07-05T07:24:04.551Z,2252
2018-07-05T07:24:24.718Z,2240
2018-07-05T07:24:44.890Z,2228
2018-07-05T07:25:05.065Z,2228
2018-07-05T07:25:25.218Z,2240
2018-07-05T07:25:45.404Z,2228
2018-07-05T07:26:05.530Z,2232
2018-07-05T07:26:25.653Z,2240
2018-07-05T07:26:45.810Z,2256
2018-07-05T07:27:06.016Z,2264
2018-07-05T07:27:26.201Z,2272
2018-07-05T07:27:46.368Z,2284
2018-07-05T07:28:06.527Z,2296
2018-07-05T07:28:26.687Z,2312
2018-07-05T07:28:46.891Z,2328
2018-07-05T07:29:07.048Z,2348
2018-07-05T07:29:27.268Z,2372
2018-07-05T07:29:47.435Z,2392
2018-07-05T07:30:07.622Z,2416
2018-07-05T07:30:27.822Z,2440
2018-07-05T07:30:47.966Z,2464
2018-07-05T07:31:08.185Z,2488
2018-07-05T07:31:28.418Z,2512
2018-07-05T07:31:48.610Z,2536
2018-07-05T07:32:08.813Z,2552
2018-07-05T07:32:28.947Z,2568
2018-07-05T07:32:49.146Z,2580
2018-07-05T07:33:09.345Z,2592
2018-07-05T07:33:29.483Z,2592
2018-07-05T07:33:49.650Z,2600
2018-07-05T07:34:09.805Z,2612
2018-07-05T07:34:29.960Z,2616
2018-07-05T07:34:50.125Z,2616
2018-07-05T07:35:10.272Z,2616
2018-07-05T07:35:30.438Z,2640
2018-07-05T07:35:50.603Z,2584
2018-07-05T07:36:10.744Z,2556
2018-07-05T07:36:30.918Z,2548
2018-07-05T07:36:51.065Z,2536
2018-07-05T07:37:11.215Z,2524
2018-07-05T07:37:31.510Z,2508
2018-07-05T07:37:51.656Z,2520
2018-07-05T07:38:11.812Z,2520
2018-07-05T07:38:31.985Z,2480
2018-07-05T07:38:52.150Z,2480
2018-07-05T07:39:12.327Z,2404
2018-07-05T07:39:32.499Z,2384
2018-07-05T07:39:52.628Z,2344
2018-07-05T07:40:12.788Z,2316
2018-07-05T07:40:32.944Z,2284
2018-07-05T07:40:53.118Z,2248
2018-07-05T07:41:13.273Z,2240
2018-07-05T07:41:33.441Z,2216
2018-07-05T07:41:53.613Z,2208
2018-07-05T07:42:13.788Z,2140
2018-07-05T07:42:33.973Z,2112
2018-07-05T07:42:54.169Z,2084
2018-07-05T07:43:14.339Z,2068
2018-07-05T07:43:34.522Z,2068
2018-07-05T07:43:54.696Z,2040
2018-07-05T07:44:14.876Z,1996
2018-07-05T07:44:35.044Z,1992
2018-07-05T07:44:55.195Z,2000
2018-07-05T07:45:15.353Z,1992
2018-07-05T07:45:35.684Z,1940
2018-07-05T07:45:55.847Z,1924
2018-07-05T07:46:16.013Z,1940
2018-07-05T07:46:36.167Z,1980
2018-07-05T07:46:56.346Z,1968
2018-07-05T07:47:16.497Z,1936
2018-07-05T07:47:36.677Z,1928
2018-07-05T07:47:56.824Z,1980
2018-07-05T07:48:17.020Z,1976
2018-07-05T07:48:37.238Z,1984
2018-07-05T07:48:57.400Z,1948
2018-07-05T07:49:17.572Z,1892
2018-07-05T07:49:37.756Z,1856
2018-07-05T07:49:57.917Z,1860
2018-07-05T07:50:18.128Z,1844
2018-07-05T07:50:38.313Z,1864
2018-07-05T07:50:58.476Z,1952
2018-07-05T07:51:18.706Z,1936
2018-07-05T07:51:38.814Z,1952
2018-07-05T07:51:58.985Z,2008
2018-07-05T07:52:19.119Z,2012
2018-07-05T07:52:39.277Z,1996
2018-07-05T07:52:59.429Z,1976
2018-07-05T07:53:19.601Z,1992
2018-07-05T07:53:39.752Z,1968
2018-07-05T07:53:59.912Z,1916
2018-07-05T07:54:20.082Z,1924
2018-07-05T07:54:40.309Z,1924
2018-07-05T07:55:00.498Z,1900
2018-07-05T07:55:20.697Z,1848
2018-07-05T07:55:40.857Z,1816
2018-07-05T07:56:01.035Z,1816
2018-07-05T07:56:21.263Z,1824
2018-07-05T07:56:41.435Z,1820
2018-07-05T07:57:01.598Z,1796
2018-07-05T07:57:21.782Z,1768
2018-07-05T07:57:41.955Z,1744
2018-07-05T07:58:02.136Z,1720
2018-07-05T07:58:22.428Z,1700
2018-07-05T07:58:42.582Z,1676
2018-07-05T07:59:02.760Z,1660
2018-07-05T07:59:23.057Z,1644
2018-07-05T07:59:43.185Z,1624
2018-07-05T08:00:03.333Z,1616
2018-07-05T08:00:23.550Z,1600
2018-07-05T08:00:43.771Z,1592
2018-07-05T08:01:03.922Z,1588
2018-07-05T08:01:24.106Z,1580
2018-07-05T08:01:44.280Z,1576
2018-07-05T08:02:04.432Z,1576
2018-07-05T08:02:24.578Z,1560
2018-07-05T08:02:44.740Z,1552
2018-07-05T08:03:04.899Z,1544
2018-07-05T08:03:25.061Z,1536
2018-07-05T08:03:45.220Z,1532
2018-07-05T08:04:05.360Z,1532
2018-07-05T08:04:25.514Z,1532
2018-07-05T08:04:45.653Z,1528
2018-07-05T08:05:05.839Z,1528
2018-07-05T08:05:26.072Z,1528
2018-07-05T08:05:46.187Z,1528
2018-07-05T08:06:06.423Z,1532
2018-07-05T08:06:26.563Z,1524
2018-07-05T08:06:46.736Z,1524
2018-07-05T08:07:06.943Z,1520
2018-07-05T08:07:27.168Z,1524
2018-07-05T08:07:47.433Z,1528
2018-07-05T08:08:07.717Z,1528
2018-07-05T08:08:27.927Z,1536
2018-07-05T08:08:48.147Z,1544
2018-07-05T08:09:08.299Z,1548
2018-07-05T08:09:28.464Z,1556
2018-07-05T08:09:48.621Z,1572
2018-07-05T08:10:08.788Z,1580
2018-07-05T08:10:28.974Z,1600
2018-07-05T08:10:49.128Z,1616
2018-07-05T08:11:09.293Z,1632
2018-07-05T08:11:29.438Z,1660
2018-07-05T08:11:49.616Z,1684
2018-07-05T08:12:09.741Z,1728
2018-07-05T08:12:29.942Z,1772
2018-07-05T08:12:50.105Z,1828
2018-07-05T08:13:10.259Z,1884
2018-07-05T08:13:30.510Z,1948
2018-07-05T08:13:50.674Z,2016
2018-07-05T08:14:10.849Z,2084
2018-07-05T08:14:31.030Z,2152
2018-07-05T08:14:51.185Z,2208
2018-07-05T08:15:11.726Z,2260
2018-07-05T08:15:31.952Z,2308
2018-07-05T08:15:52.117Z,2336
2018-07-05T08:16:12.309Z,2360
2018-07-05T08:16:32.487Z,2380
2018-07-05T08:16:52.641Z,2400
2018-07-05T08:17:12.794Z,2412
2018-07-05T08:17:32.965Z,2412
2018-07-05T08:17:53.181Z,2412
2018-07-05T08:18:13.324Z,2416
2018-07-05T08:18:33.522Z,2432
2018-07-05T08:18:53.665Z,2440
2018-07-05T08:19:13.828Z,2452
2018-07-05T08:19:34.038Z,2456
2018-07-05T08:19:54.202Z,2476
2018-07-05T08:20:14.359Z,2496
2018-07-05T08:20:34.571Z,2524
2018-07-05T08:20:54.683Z,2544
2018-07-05T08:21:14.887Z,2568
2018-07-05T08:21:35.061Z,2596
2018-07-05T08:21:55.280Z,2616
2018-07-05T08:22:15.405Z,2612
2018-07-05T08:22:35.573Z,2608
2018-07-05T08:22:55.727Z,2592
2018-07-05T08:23:15.895Z,2568
2018-07-05T08:23:36.063Z,2548
2018-07-05T08:23:56.219Z,2512
2018-07-05T08:24:16.385Z,2468
2018-07-05T08:24:36.534Z,2428
2018-07-05T08:24:56.714Z,2380
2018-07-05T08:25:16.931Z,2336
2018-07-05T08:25:37.170Z,2288
2018-07-05T08:25:57.300Z,2260
2018-07-05T08:26:17.476Z,2232
2018-07-05T08:26:37.603Z,2216
2018-07-05T08:26:57.745Z,2196
2018-07-05T08:27:17.931Z,2180
2018-07-05T08:27:38.118Z,2164
2018-07-05T08:27:58.266Z,2156
2018-07-05T08:28:18.404Z,2148
2018-07-05T08:28:38.560Z,2144
2018-07-05T08:28:58.725Z,2144
2018-07-05T08:29:18.876Z,2140
2018-07-05T08:29:39.016Z,2144
2018-07-05T08:29:59.184Z,2140
2018-07-05T08:30:19.335Z,2136
2018-07-05T08:30:39.488Z,2136
2018-07-05T08:30:59.682Z,2128
2018-07-05T08:31:19.885Z,2116
2018-07-05T08:31:40.028Z,2096
2018-07-05T08:32:00.227Z,2076
2018-07-05T08:32:20.375Z,2056
2018-07-05T08:32:40.518Z,2024
2018-07-05T08:33:00.680Z,1996
2018-07-05T08:33:20.852Z,1964
2018-07-05T08:33:41.022Z,1936
2018-07-05T08:34:01.180Z,1908
2018-07-05T08:34:21.357Z,1876
2018-07-05T08:34:41.500Z,1848
2018-07-05T08:35:01.676Z,1828
2018-07-05T08:35:21.870Z,1796
2018-07-05T08:35:41.996Z,1768
2018-07-05T08:36:02.204Z,1744
2018-07-05T08:36:22.388Z,1724
2018-07-05T08:36:42.596Z,1708
2018-07-05T08:37:02.788Z,1688
2018-07-05T08:37:22.970Z,1672
2018-07-05T08:37:43.188Z,1660
2018-07-05T08:38:03.346Z,1648
2018-07-05T08:38:23.520Z,1636
2018-07-05T08:38:43.702Z,1632
2018-07-05T08:39:03.862Z,1620
2018-07-05T08:39:24.032Z,1624
2018-07-05T08:39:44.210Z,1620
2018-07-05T08:40:04.355Z,1616
2018-07-05T08:40:24.516Z,1612
2018-07-05T08:40:44.685Z,1612
2018-07-05T08:41:04.841Z,1608
2018-07-05T08:41:25.017Z,1604
2018-07-05T08:41:45.184Z,1596
2018-07-05T08:42:05.330Z,1600
2018-07-05T08:42:25.497Z,1596
2018-07-05T08:42:45.683Z,1600
2018-07-05T08:43:05.941Z,1600
2018-07-05T08:43:26.085Z,1604
2018-07-05T08:43:46.346Z,1604
2018-07-05T08:44:06.509Z,1608
2018-07-05T08:44:26.664Z,1608
2018-07-05T08:44:46.842Z,1612
2018-07-05T08:45:06.958Z,1608
2018-07-05T08:45:27.120Z,1608
2018-07-05T08:45:47.307Z,1612
2018-07-05T08:46:07.515Z,1604
2018-07-05T08:46:27.758Z,1608
2018-07-05T08:46:47.957Z,1604
2018-07-05T08:47:08.107Z,1604
2018-07-05T08:47:28.286Z,1604
2018-07-05T08:47:48.474Z,1608
2018-07-05T08:48:08.620Z,1616
2018-07-05T08:48:28.766Z,1616
2018-07-05T08:48:49.098Z,1628
2018-07-05T08:49:09.294Z,1628
2018-07-05T08:49:29.475Z,1636
2018-07-05T08:49:49.634Z,1640
2018-07-05T08:50:09.802Z,1644
2018-07-05T08:50:29.968Z,1648
2018-07-05T08:50:50.186Z,1648
2018-07-05T08:51:10.455Z,1652
2018-07-05T08:51:30.612Z,1648
2018-07-05T08:51:50.792Z,1648
2018-07-05T08:52:10.986Z,1644
2018-07-05T08:52:31.139Z,1644
2018-07-05T08:52:51.305Z,1644
2018-07-05T08:53:11.600Z,1640
2018-07-05T08:53:31.775Z,1640
2018-07-05T08:53:51.933Z,1644
2018-07-05T08:54:12.146Z,1640
2018-07-05T08:54:32.314Z,1636
2018-07-05T08:54:52.495Z,1640
2018-07-05T08:55:12.700Z,1640
2018-07-05T08:55:32.886Z,1640
2018-07-05T08:55:53.052Z,1640
2018-07-05T08:56:13.224Z,1632
2018-07-05T08:56:33.386Z,1636
2018-07-05T08:56:53.578Z,1636
2018-07-05T08:57:13.831Z,1640
2018-07-05T08:57:33.991Z,1648
2018-07-05T08:57:54.137Z,1648
2018-07-05T08:58:14.340Z,1648
2018-07-05T08:58:34.514Z,1648
2018-07-05T08:58:54.716Z,1652
2018-07-05T08:59:14.894Z,1648
2018-07-05T08:59:35.065Z,1648
2018-07-05T08:59:55.180Z,1648
2018-07-05T09:00:15.362Z,1648
2018-07-05T09:00:35.533Z,1652
2018-07-05T09:00:55.667Z,1656
2018-07-05T09:01:15.842Z,1656
2018-07-05T09:01:36.030Z,1656
2018-07-05T09:01:56.233Z,1668
2018-07-05T09:02:16.417Z,1672
2018-07-05T09:02:36.668Z,1676
2018-07-05T09:02:56.823Z,1680
2018-07-05T09:03:17.065Z,1680
2018-07-05T09:03:37.213Z,1684
2018-07-05T09:03:57.403Z,1684
2018-07-05T09:04:17.542Z,1688
2018-07-05T09:04:37.701Z,1692
2018-07-05T09:04:57.858Z,1692
2018-07-05T09:05:18.084Z,1692
2018-07-05T09:05:38.161Z,1696
2018-07-05T09:05:58.355Z,1700
2018-07-05T09:06:18.491Z,1696
2018-07-05T09:06:38.660Z,1692
2018-07-05T09:06:58.809Z,1700
2018-07-05T09:07:18.964Z,1712
2018-07-05T09:07:39.116Z,1712
2018-07-05T09:07:59.280Z,1704
2018-07-05T09:08:19.449Z,1696
2018-07-05T09:08:39.611Z,1696
2018-07-05T09:08:59.769Z,1696
2018-07-05T09:09:19.928Z,1700